Time;durP1;ratioP1;P1;durP2;ratioP2;P2;SDS_P1;SDS_P2;PMS_P1;PMS_P2;Temp;Humidity;BMP_temperature;BMP_pressure;BME280_temperature;BME280_humidity;BME280_pressure;Samples;Min_cycle;Max_cycle;Signal;HPM_P1;HPM_P2
2022/03/29 00:00:25;;;;;;;;;;;8.90;99.90;;;;;;5147045;27;19923;-88
2022/03/29 00:02:57;;;;;;;;;;;9.40;99.90;;;;;;5145476;27;19968;-87
2022/03/29 00:05:26;;;;;;;;;;;9.40;99.90;;;;;;5148794;27;20101;-87
2022/03/29 00:07:53;;;;;;;;;;;11.50;99.90;;;;;;5149285;27;19923;-87
2022/03/29 00:10:21;;;;;;;;;;;9.30;99.90;;;;;;5149520;27;19923;-89
2022/03/29 00:12:50;;;;;;;;;;;9.30;99.90;;;;;;5148790;27;19927;-87
2022/03/29 00:15:17;;;;;;;;;;;9.50;99.90;;;;;;5148375;27;19923;-88
2022/03/29 00:17:44;;;;;;;;;;;9.20;99.90;;;;;;5149055;27;20002;-87
2022/03/29 00:20:13;;;;;;;;;;;7.30;99.90;;;;;;5148998;27;19963;-86
2022/03/29 00:22:40;;;;;;;;;;;10.00;99.90;;;;;;5148738;27;19924;-86
2022/03/29 00:25:08;;;;;;;;;;;9.40;99.90;;;;;;5149107;27;19930;-87
2022/03/29 00:27:36;;;;;;;;;;;9.80;99.90;;;;;;5148692;27;20018;-88
2022/03/29 00:30:06;;;;;;;;;;;9.40;99.90;;;;;;5148685;27;19923;-87
2022/03/29 00:32:33;;;;;;;;;;;9.40;99.90;;;;;;5148508;27;19924;-87
2022/03/29 00:35:03;;;;;;;;;;;9.40;99.90;;;;;;5148898;27;19923;-88
2022/03/29 00:39:58;;;;;;;;;;;9.70;99.90;;;;;;5099597;22;19924;-87
2022/03/29 00:42:25;;;;;;;;;;;9.30;99.90;;;;;;5087216;28;19925;-87
2022/03/29 00:44:53;;;;;;;;;;;9.10;99.90;;;;;;5087005;28;19924;-87
2022/03/29 00:47:19;;;;;;;;;;;9.20;99.90;;;;;;5086927;28;19931;-87
2022/03/29 00:49:52;;;;;;;;;;;9.80;99.90;;;;;;5086684;28;19925;-88
2022/03/29 00:52:19;;;;;;;;;;;10.70;99.90;;;;;;5086950;28;19925;-89
2022/03/29 00:54:49;;;;;;;;;;;9.60;99.90;;;;;;5087041;28;19925;-86
2022/03/29 00:57:19;;;;;;;;;;;9.10;99.90;;;;;;5087149;28;19976;-87
2022/03/29 00:59:51;;;;;;;;;;;8.80;99.90;;;;;;5087389;28;20019;-88
2022/03/29 01:02:18;;;;;;;;;;;9.00;99.90;;;;;;5069371;28;19928;-87
2022/03/29 01:04:45;;;;;;;;;;;9.30;99.90;;;;;;5087158;28;19931;-87
2022/03/29 01:07:14;;;;;;;;;;;9.00;99.90;;;;;;5086403;28;19925;-87
2022/03/29 01:09:42;;;;;;;;;;;8.40;99.90;;;;;;5086960;28;19928;-88
2022/03/29 01:12:09;;;;;;;;;;;8.70;99.90;;;;;;5086390;28;19932;-87
2022/03/29 01:14:40;;;;;;;;;;;8.70;99.90;;;;;;5086481;28;19924;-87
2022/03/29 01:19:53;;;;;;;;;;;7.10;99.90;;;;;;5086549;28;19936;-87
2022/03/29 01:22:22;;;;;;;;;;;9.00;99.90;;;;;;5086299;28;19925;-87
2022/03/29 01:24:59;;;;;;;;;;;8.30;99.90;;;;;;5087341;28;19934;-86
2022/03/29 01:27:33;;;;;;;;;;;8.40;99.90;;;;;;5087945;28;19925;-88
2022/03/29 01:30:02;;;;;;;;;;;8.30;99.90;;;;;;5088001;28;19974;-87
2022/03/29 01:32:29;;;;;;;;;;;8.60;99.90;;;;;;5087691;28;19991;-87
2022/03/29 01:34:59;;;;;;;;;;;8.50;99.90;;;;;;5086383;28;19932;-87
2022/03/29 01:37:29;;;;;;;;;;;8.50;99.90;;;;;;5086376;28;19970;-88
2022/03/29 01:39:57;;;;;;;;;;;7.80;99.90;;;;;;5083838;28;19928;-87
2022/03/29 01:42:26;;;;;;;;;;;8.40;99.90;;;;;;5084362;28;20018;-89
2022/03/29 01:44:53;;;;;;;;;;;8.40;99.90;;;;;;5075420;28;19932;-87
2022/03/29 01:47:22;;;;;;;;;;;8.40;99.90;;;;;;5082581;28;19946;-87
2022/03/29 01:49:50;;;;;;;;;;;11.70;99.90;;;;;;5086026;28;19936;-87
2022/03/29 01:52:20;;;;;;;;;;;8.50;99.90;;;;;;5086189;28;20282;-87
2022/03/29 01:54:49;;;;;;;;;;;8.60;99.90;;;;;;5086229;28;19981;-88
2022/03/29 01:57:15;;;;;;;;;;;8.30;99.90;;;;;;5086402;28;19932;-88
2022/03/29 02:02:29;;;;;;;;;;;8.40;99.90;;;;;;5086276;28;20407;-87
2022/03/29 02:05:05;;;;;;;;;;;8.30;99.90;;;;;;5086140;28;19924;-88
2022/03/29 02:07:32;;;;;;;;;;;8.30;99.90;;;;;;5085262;28;19988;-88
2022/03/29 02:10:01;;;;;;;;;;;8.40;99.90;;;;;;5085744;28;19946;-89
2022/03/29 02:12:29;;;;;;;;;;;8.10;99.90;;;;;;5085679;28;19924;-87
2022/03/29 02:14:56;;;;;;;;;;;8.10;99.90;;;;;;5086040;28;19924;-87
2022/03/29 02:17:29;;;;;;;;;;;8.00;99.90;;;;;;5088312;28;19935;-88
2022/03/29 02:19:57;;;;;;;;;;;8.00;99.90;;;;;;5089667;28;19959;-88
2022/03/29 02:22:24;;;;;;;;;;;7.90;99.90;;;;;;5089007;28;19924;-89
2022/03/29 02:24:52;;;;;;;;;;;7.90;99.90;;;;;;5089174;28;19955;-88
2022/03/29 02:27:21;;;;;;;;;;;7.80;99.90;;;;;;5109353;22;19963;-86
2022/03/29 02:29:48;;;;;;;;;;;8.00;99.90;;;;;;5086530;28;19966;-86
2022/03/29 02:32:15;;;;;;;;;;;7.80;99.90;;;;;;5089337;28;19925;-88
2022/03/29 02:34:42;;;;;;;;;;;5.70;99.90;;;;;;5088717;28;20051;-88
2022/03/29 02:37:10;;;;;;;;;;;7.70;99.90;;;;;;5089545;28;19992;-89
2022/03/29 02:39:37;;;;;;;;;;;8.00;99.90;;;;;;5089451;28;19925;-87
2022/03/29 02:42:04;;;;;;;;;;;7.70;99.90;;;;;;5089141;28;19947;-87
2022/03/29 02:44:33;;;;;;;;;;;7.80;99.90;;;;;;5088942;28;19924;-88
2022/03/29 02:47:00;;;;;;;;;;;8.50;99.90;;;;;;5088261;28;19986;-90
2022/03/29 02:49:27;;;;;;;;;;;7.80;99.90;;;;;;5087790;28;19924;-87
2022/03/29 02:51:54;;;;;;;;;;;8.00;99.90;;;;;;5087949;28;19924;-87
2022/03/29 02:54:21;;;;;;;;;;;7.70;99.90;;;;;;5088021;28;19924;-87
2022/03/29 02:56:48;;;;;;;;;;;7.70;99.90;;;;;;5087499;28;19924;-91
2022/03/29 02:59:14;;;;;;;;;;;7.80;99.90;;;;;;5088642;28;20102;-88
2022/03/29 03:01:43;;;;;;;;;;;7.70;99.90;;;;;;5087170;28;19974;-89
2022/03/29 03:04:12;;;;;;;;;;;8.40;99.90;;;;;;5087110;28;19924;-87
2022/03/29 03:06:41;;;;;;;;;;;7.80;99.90;;;;;;5087310;28;19924;-90
2022/03/29 03:09:08;;;;;;;;;;;7.80;99.90;;;;;;5087648;28;19932;-88
2022/03/29 03:11:36;;;;;;;;;;;7.70;99.90;;;;;;5087023;28;19928;-87
2022/03/29 03:14:05;;;;;;;;;;;7.70;99.90;;;;;;5086428;28;19928;-87
2022/03/29 03:16:34;;;;;;;;;;;7.80;99.90;;;;;;5085563;28;19924;-87
2022/03/29 03:19:05;;;;;;;;;;;8.00;99.90;;;;;;5086378;28;19928;-90
2022/03/29 03:21:32;;;;;;;;;;;7.90;99.90;;;;;;5086938;28;19928;-89
2022/03/29 03:23:59;;;;;;;;;;;8.00;99.90;;;;;;5086750;28;19925;-88
2022/03/29 03:26:26;;;;;;;;;;;7.90;99.90;;;;;;5086425;28;19925;-88
2022/03/29 03:28:53;;;;;;;;;;;7.90;99.90;;;;;;5084794;28;19924;-89
2022/03/29 03:31:20;;;;;;;;;;;7.90;99.90;;;;;;5088579;28;19938;-86
2022/03/29 03:33:47;;;;;;;;;;;6.40;99.90;;;;;;5091086;28;19924;-86
2022/03/29 03:36:16;;;;;;;;;;;8.00;99.90;;;;;;5072875;28;19925;-87
2022/03/29 03:38:43;;;;;;;;;;;8.00;99.90;;;;;;5091304;28;20007;-89
2022/03/29 03:41:11;;;;;;;;;;;7.70;99.90;;;;;;5088520;28;19925;-86
2022/03/29 03:43:38;;;;;;;;;;;7.70;99.90;;;;;;5087647;28;19925;-89
2022/03/29 03:46:05;;;;;;;;;;;8.10;99.90;;;;;;5088140;28;19928;-87
2022/03/29 03:48:32;;;;;;;;;;;6.20;99.90;;;;;;5087199;28;19924;-87
2022/03/29 03:50:59;;;;;;;;;;;8.50;99.90;;;;;;5088087;28;19928;-87
2022/03/29 03:53:27;;;;;;;;;;;7.60;99.90;;;;;;5087817;28;19928;-88
2022/03/29 03:55:54;;;;;;;;;;;7.40;99.90;;;;;;5087152;28;19925;-89
2022/03/29 03:58:21;;;;;;;;;;;7.30;99.90;;;;;;5087289;28;19936;-90
2022/03/29 04:00:48;;;;;;;;;;;7.30;99.90;;;;;;5069011;28;19932;-87
2022/03/29 04:03:15;;;;;;;;;;;7.40;99.90;;;;;;5087680;28;19924;-87
2022/03/29 04:05:42;;;;;;;;;;;7.80;99.90;;;;;;5076937;28;19980;-87
2022/03/29 04:08:10;;;;;;;;;;;7.10;99.90;;;;;;5068275;28;19925;-87
2022/03/29 04:10:38;;;;;;;;;;;7.10;99.90;;;;;;5068167;28;19925;-87
2022/03/29 04:13:06;;;;;;;;;;;7.10;99.90;;;;;;5081317;28;19978;-87
2022/03/29 04:15:33;;;;;;;;;;;7.20;99.90;;;;;;5083537;28;19947;-87
2022/03/29 04:18:01;;;;;;;;;;;7.20;99.90;;;;;;5087415;28;19925;-88
2022/03/29 04:20:29;;;;;;;;;;;6.90;99.90;;;;;;5086023;28;19931;-87
2022/03/29 04:22:57;;;;;;;;;;;7.00;99.90;;;;;;5068443;28;19962;-87
2022/03/29 04:25:24;;;;;;;;;;;7.20;99.90;;;;;;5086903;28;19991;-87
2022/03/29 04:27:52;;;;;;;;;;;7.30;99.90;;;;;;5086595;28;19924;-90
2022/03/29 04:30:19;;;;;;;;;;;7.00;99.90;;;;;;5086042;28;19924;-87
2022/03/29 04:32:46;;;;;;;;;;;7.30;99.90;;;;;;5085963;28;19928;-86
2022/03/29 04:35:13;;;;;;;;;;;7.20;99.90;;;;;;5085641;28;19947;-87
2022/03/29 04:37:40;;;;;;;;;;;7.40;99.90;;;;;;5086910;28;20015;-88
2022/03/29 04:40:09;;;;;;;;;;;7.20;99.90;;;;;;5098376;22;19924;-87
2022/03/29 04:42:42;;;;;;;;;;;7.00;99.90;;;;;;5106383;28;19928;-90
2022/03/29 04:45:12;;;;;;;;;;;6.90;99.90;;;;;;5106596;28;19982;-87
2022/03/29 04:47:38;;;;;;;;;;;6.90;99.90;;;;;;5106394;28;19925;-88
2022/03/29 04:50:06;;;;;;;;;;;7.10;99.90;;;;;;5106380;28;20014;-89
2022/03/29 04:52:33;;;;;;;;;;;7.50;99.90;;;;;;5106760;28;19987;-90
2022/03/29 04:55:00;;;;;;;;;;;7.20;99.90;;;;;;5105661;28;20431;-89
2022/03/29 04:57:27;;;;;;;;;;;6.60;99.90;;;;;;5107091;28;19928;-88
2022/03/29 04:59:54;;;;;;;;;;;6.60;99.90;;;;;;5106554;28;19924;-87
2022/03/29 05:02:24;;;;;;;;;;;6.50;99.90;;;;;;5106383;28;19924;-90
2022/03/29 05:04:51;;;;;;;;;;;7.00;99.90;;;;;;5106175;28;20000;-87
2022/03/29 05:07:19;;;;;;;;;;;6.70;99.90;;;;;;5106399;28;19996;-88
2022/03/29 05:09:48;;;;;;;;;;;6.50;99.90;;;;;;5106075;28;19931;-87
2022/03/29 05:12:14;;;;;;;;;;;6.40;99.90;;;;;;5104686;28;19935;-89
2022/03/29 05:14:41;;;;;;;;;;;6.60;99.90;;;;;;5104835;28;19931;-88
2022/03/29 05:17:08;;;;;;;;;;;6.80;99.90;;;;;;5104271;28;19930;-88
2022/03/29 05:19:36;;;;;;;;;;;6.50;99.90;;;;;;5104303;28;19924;-88
2022/03/29 05:22:04;;;;;;;;;;;6.40;99.90;;;;;;5103589;28;19969;-88
2022/03/29 05:24:31;;;;;;;;;;;6.70;99.90;;;;;;5103771;28;19938;-89
2022/03/29 05:26:58;;;;;;;;;;;6.70;99.90;;;;;;5104239;28;19928;-90
2022/03/29 05:29:25;;;;;;;;;;;6.60;99.90;;;;;;5104484;28;19927;-90
2022/03/29 05:31:51;;;;;;;;;;;6.20;99.90;;;;;;5105182;28;19928;-87
2022/03/29 05:34:19;;;;;;;;;;;6.20;99.90;;;;;;5104696;28;19924;-90
2022/03/29 05:36:50;;;;;;;;;;;6.20;99.90;;;;;;5104437;28;19924;-88
2022/03/29 05:39:16;;;;;;;;;;;6.10;99.90;;;;;;5105652;28;19931;-86
2022/03/29 05:41:43;;;;;;;;;;;6.20;99.90;;;;;;5108617;28;19977;-86
2022/03/29 05:44:10;;;;;;;;;;;6.50;99.90;;;;;;5108695;28;19924;-88
2022/03/29 05:49:21;;;;;;;;;;;6.20;99.90;;;;;;5106821;28;20354;-88
2022/03/29 05:51:52;;;;;;;;;;;6.10;99.90;;;;;;5107077;28;19935;-87
2022/03/29 05:54:19;;;;;;;;;;;6.10;99.90;;;;;;5108377;28;19998;-88
2022/03/29 05:56:46;;;;;;;;;;;6.10;99.90;;;;;;5107291;28;19924;-87
2022/03/29 05:59:13;;;;;;;;;;;6.10;99.90;;;;;;5108981;28;19946;-88
2022/03/29 06:01:40;;;;;;;;;;;6.20;99.90;;;;;;5109121;28;19924;-86
2022/03/29 06:04:08;;;;;;;;;;;6.10;99.90;;;;;;5107863;28;19931;-88
2022/03/29 06:06:36;;;;;;;;;;;5.80;99.90;;;;;;5107692;28;19924;-87
2022/03/29 06:09:05;;;;;;;;;;;6.20;99.90;;;;;;5105916;28;19952;-88
2022/03/29 06:11:37;;;;;;;;;;;6.80;99.90;;;;;;5107856;28;19928;-88
2022/03/29 06:14:14;;;;;;;;;;;6.40;99.90;;;;;;5093548;28;20030;-87
2022/03/29 06:16:41;;;;;;;;;;;6.40;99.90;;;;;;5103928;28;19935;-88
2022/03/29 06:19:08;;;;;;;;;;;6.50;99.90;;;;;;5104026;28;19932;-90
2022/03/29 06:21:44;;;;;;;;;;;6.40;99.90;;;;;;5103526;28;19947;-87
2022/03/29 06:24:12;;;;;;;;;;;6.40;99.90;;;;;;5107996;28;19924;-87
2022/03/29 06:26:39;;;;;;;;;;;6.90;99.90;;;;;;5107506;28;19930;-88
2022/03/29 06:29:07;;;;;;;;;;;6.90;99.90;;;;;;5109219;28;19989;-87
2022/03/29 06:31:34;;;;;;;;;;;6.80;99.90;;;;;;5109750;28;20014;-86
2022/03/29 06:34:01;;;;;;;;;;;4.40;99.90;;;;;;5109390;28;20404;-87
2022/03/29 06:36:28;;;;;;;;;;;7.10;99.90;;;;;;5109235;28;19959;-86
2022/03/29 06:39:17;;;;;;;;;;;7.50;99.90;;;;;;5108801;28;19924;-86
2022/03/29 06:42:03;;;;;;;;;;;7.40;99.90;;;;;;5110091;28;19924;-87
2022/03/29 06:44:33;;;;;;;;;;;8.20;99.90;;;;;;5108636;28;20408;-87
2022/03/29 06:47:01;;;;;;;;;;;6.90;99.90;;;;;;5104819;22;19928;-88
2022/03/29 06:49:37;;;;;;;;;;;7.30;99.90;;;;;;5088685;28;20347;-87
2022/03/29 06:52:07;;;;;;;;;;;7.70;99.90;;;;;;5088809;28;19996;-87
2022/03/29 06:54:39;;;;;;;;;;;10.20;99.90;;;;;;5088118;28;19925;-87
2022/03/29 06:57:09;;;;;;;;;;;7.70;99.90;;;;;;5088369;28;19964;-87
2022/03/29 06:59:38;;;;;;;;;;;8.00;99.90;;;;;;5084061;28;20003;-87
2022/03/29 07:02:07;;;;;;;;;;;8.00;99.90;;;;;;5086163;28;19950;-86
2022/03/29 07:04:36;;;;;;;;;;;8.40;99.90;;;;;;5085394;28;19924;-88
2022/03/29 07:07:03;;;;;;;;;;;7.90;99.90;;;;;;5085941;28;19931;-87
2022/03/29 07:12:17;;;;;;;;;;;8.00;99.90;;;;;;5087335;28;20369;-89
2022/03/29 07:14:45;;;;;;;;;;;7.60;99.90;;;;;;5084836;28;19931;-86
2022/03/29 07:17:15;;;;;;;;;;;7.80;99.90;;;;;;5086329;28;19925;-90
2022/03/29 07:22:25;;;;;;;;;;;8.40;99.90;;;;;;5081950;28;20010;-88
2022/03/29 07:24:53;;;;;;;;;;;8.20;99.90;;;;;;5083584;28;19940;-89
2022/03/29 07:27:25;;;;;;;;;;;8.10;99.90;;;;;;5083357;28;20019;-87
2022/03/29 07:29:55;;;;;;;;;;;8.50;99.90;;;;;;5066951;28;19925;-88
2022/03/29 07:32:24;;;;;;;;;;;8.90;99.90;;;;;;5084670;28;19925;-87
2022/03/29 07:34:53;;;;;;;;;;;8.80;99.90;;;;;;5084696;28;20031;-87
2022/03/29 07:37:20;;;;;;;;;;;8.60;99.90;;;;;;5082802;28;19928;-88
2022/03/29 07:39:48;;;;;;;;;;;8.60;99.90;;;;;;5086034;28;19924;-89
2022/03/29 07:42:16;;;;;;;;;;;8.70;99.90;;;;;;5082135;28;19925;-89
2022/03/29 07:44:45;;;;;;;;;;;8.80;99.90;;;;;;5084656;28;19931;-89
2022/03/29 07:47:12;;;;;;;;;;;8.70;99.90;;;;;;5100914;22;20028;-91
2022/03/29 07:49:40;;;;;;;;;;;12.10;99.90;;;;;;5104684;28;19924;-89
2022/03/29 07:52:18;;;;;;;;;;;9.10;99.90;;;;;;5095171;28;19929;-89
2022/03/29 07:54:51;;;;;;;;;;;10.20;99.90;;;;;;5087162;28;19935;-88
2022/03/29 07:57:21;;;;;;;;;;;9.50;99.90;;;;;;5080418;28;19920;-89
2022/03/29 08:00:31;;;;;;;;;;;9.60;99.90;;;;;;5058651;28;19986;-86
2022/03/29 08:02:48;;;;;;;;;;;10.00;99.90;;;;;;5076423;28;19929;-86
2022/03/29 08:05:17;;;;;;;;;;;9.30;99.90;;;;;;5080426;28;21490;-89
2022/03/29 08:07:45;;;;;;;;;;;9.40;99.90;;;;;;5054045;28;19924;-89
2022/03/29 08:10:12;;;;;;;;;;;10.50;99.90;;;;;;5058371;28;19925;-88
2022/03/29 08:12:39;;;;;;;;;;;9.90;99.90;;;;;;5085205;28;19978;-90
2022/03/29 08:15:11;;;;;;;;;;;9.50;99.90;;;;;;5085727;28;20604;-89
2022/03/29 08:17:48;;;;;;;;;;;9.90;99.90;;;;;;5081459;28;19963;-89
2022/03/29 08:20:17;;;;;;;;;;;9.30;99.90;;;;;;5087941;28;20447;-87
2022/03/29 08:22:55;;;;;;;;;;;9.60;99.90;;;;;;5083546;28;20008;-84
2022/03/29 08:25:22;;;;;;;;;;;10.70;99.90;;;;;;5085120;28;20650;-90
2022/03/29 08:27:51;;;;;;;;;;;9.80;99.90;;;;;;5079331;28;19924;-87
2022/03/29 08:30:23;;;;;;;;;;;9.60;99.90;;;;;;5079523;28;19928;-88
2022/03/29 08:32:50;;;;;;;;;;;9.90;99.90;;;;;;5086694;28;19932;-90
2022/03/29 08:35:21;;;;;;;;;;;9.00;99.90;;;;;;5087713;28;19924;-90
2022/03/29 08:37:48;;;;;;;;;;;9.70;99.90;;;;;;5088025;28;19959;-89
2022/03/29 08:40:26;;;;;;;;;;;9.70;99.90;;;;;;5093696;28;19930;-90
2022/03/29 08:43:00;;;;;;;;;;;10.90;99.90;;;;;;5088766;28;19924;-90
2022/03/29 08:45:40;;;;;;;;;;;10.40;99.90;;;;;;5089414;28;20411;-91
2022/03/29 08:48:10;;;;;;;;;;;10.70;99.90;;;;;;5095316;28;19954;-90
2022/03/29 08:50:40;;;;;;;;;;;10.50;99.90;;;;;;5093213;28;19990;-89
2022/03/29 08:53:14;;;;;;;;;;;10.70;99.90;;;;;;5094801;28;19924;-90
2022/03/29 08:55:44;;;;;;;;;;;11.00;99.90;;;;;;5092894;28;19928;-88
2022/03/29 08:58:15;;;;;;;;;;;8.80;99.90;;;;;;5077030;28;20069;-85
2022/03/29 09:00:45;;;;;;;;;;;11.00;99.90;;;;;;5083264;28;19973;-88
2022/03/29 09:03:13;;;;;;;;;;;11.20;99.90;;;;;;5076422;28;19924;-85
2022/03/29 09:05:43;;;;;;;;;;;11.60;99.90;;;;;;5090664;28;19924;-87
2022/03/29 09:08:16;;;;;;;;;;;11.60;99.90;;;;;;5103042;28;19928;-90
2022/03/29 09:10:51;;;;;;;;;;;11.40;99.90;;;;;;5107856;28;19928;-89
2022/03/29 09:13:26;;;;;;;;;;;9.50;99.90;;;;;;5094480;28;19951;-90
2022/03/29 09:15:55;;;;;;;;;;;11.80;99.90;;;;;;5091129;28;19924;-91
2022/03/29 09:18:23;;;;;;;;;;;11.90;99.90;;;;;;5092103;28;19928;-89
2022/03/29 09:21:27;;;;;;;;;;;;;;;;;;;;;
2022/03/29 09:24:37;;;;;;;;;;;;;;;;;;;;;
2022/03/29 09:27:10;;;;;;;;;;;10.90;99.90;;;;;;5087078;28;19924;-88
2022/03/29 09:29:40;;;;;;;;;;;12.00;99.90;;;;;;5088582;28;19962;-90
2022/03/29 09:32:25;;;;;;;;;;;12.70;99.90;;;;;;5088881;28;19931;-89
2022/03/29 09:35:05;;;;;;;;;;;15.20;99.90;;;;;;5097016;28;19928;-88
2022/03/29 09:37:44;;;;;;;;;;;9.40;99.90;;;;;;5094903;28;20336;-89
2022/03/29 09:40:31;;;;;;;;;;;12.50;99.90;;;;;;5090958;28;20027;-89
2022/03/29 09:43:37;;;;;;;;;;;13.40;99.90;;;;;;5096143;28;19924;-89
2022/03/29 09:46:14;;;;;;;;;;;12.20;99.90;;;;;;5088911;28;19924;-90
2022/03/29 09:48:56;;;;;;;;;;;12.20;99.90;;;;;;5088138;28;19936;-89
2022/03/29 09:51:26;;;;;;;;;;;12.20;99.90;;;;;;5087072;28;19928;-87
2022/03/29 09:53:57;;;;;;;;;;;12.50;99.90;;;;;;5091679;28;19932;-87
2022/03/29 09:57:03;;;;;;;;;;;;;;;;;;;;;
2022/03/29 09:59:37;;;;;;;;;;;13.60;99.90;;;;;;5083684;28;19947;-89
2022/03/29 10:02:07;;;;;;;;;;;12.50;99.90;;;;;;5093494;28;20011;-89
2022/03/29 10:04:37;;;;;;;;;;;12.30;99.90;;;;;;5087170;28;20285;-86
2022/03/29 10:07:33;;;;;;;;;;;12.80;99.90;;;;;;5088612;28;19935;-88
2022/03/29 10:10:00;;;;;;;;;;;13.10;99.90;;;;;;5092462;28;19924;-88
2022/03/29 10:12:31;;;;;;;;;;;12.50;99.90;;;;;;5078905;28;19955;-89
2022/03/29 10:14:58;;;;;;;;;;;12.80;99.90;;;;;;5085473;28;20023;-88
2022/03/29 10:17:26;;;;;;;;;;;13.00;99.90;;;;;;5084278;28;19935;-88
2022/03/29 10:19:55;;;;;;;;;;;13.40;99.90;;;;;;5088857;28;19946;-88
2022/03/29 10:22:22;;;;;;;;;;;12.70;99.90;;;;;;5082168;28;19924;-89
2022/03/29 10:24:49;;;;;;;;;;;11.60;99.90;;;;;;5083560;28;19934;-88
2022/03/29 10:27:19;;;;;;;;;;;12.40;99.90;;;;;;5089012;28;19932;-88
2022/03/29 10:29:46;;;;;;;;;;;13.10;99.90;;;;;;5089461;28;20064;-91
2022/03/29 10:32:31;;;;;;;;;;;13.30;99.90;;;;;;5084844;28;19928;-88
2022/03/29 10:35:10;;;;;;;;;;;13.60;99.90;;;;;;5082268;28;19928;-89
2022/03/29 10:37:59;;;;;;;;;;;13.20;99.90;;;;;;5083762;28;19924;-82
2022/03/29 10:40:39;;;;;;;;;;;13.30;99.90;;;;;;5082753;28;19924;-88
2022/03/29 10:43:32;;;;;;;;;;;13.60;99.90;;;;;;5089592;28;19924;-88
2022/03/29 10:46:37;;;;;;;;;;;14.80;99.90;;;;;;5093061;28;19924;-85
2022/03/29 10:49:17;;;;;;;;;;;15.30;99.90;;;;;;5094811;28;19936;-90
2022/03/29 10:51:55;;;;;;;;;;;13.80;99.90;;;;;;5069021;28;19924;-88
2022/03/29 10:54:24;;;;;;;;;;;14.40;99.90;;;;;;5079922;28;20420;-89
2022/03/29 10:57:19;;;;;;;;;;;14.80;99.90;;;;;;5078863;28;20020;-88
2022/03/29 10:59:51;;;;;;;;;;;14.50;99.90;;;;;;5090968;28;19924;-89
2022/03/29 11:02:24;;;;;;;;;;;15.10;99.90;;;;;;5087189;28;19932;-88
2022/03/29 11:05:08;;;;;;;;;;;14.50;99.90;;;;;;5085100;28;19978;-89
2022/03/29 11:07:41;;;;;;;;;;;14.60;99.90;;;;;;5085020;28;19928;-91
2022/03/29 11:10:13;;;;;;;;;;;15.30;99.90;;;;;;5085531;28;19924;-91
2022/03/29 11:12:45;;;;;;;;;;;14.70;99.90;;;;;;5085384;28;19924;-89
2022/03/29 11:15:52;;;;;;;;;;;12.20;99.90;;;;;;5092137;28;20030;-88
2022/03/29 11:18:48;;;;;;;;;;;14.90;99.90;;;;;;5096743;28;19997;-89
2022/03/29 11:21:32;;;;;;;;;;;14.40;99.90;;;;;;5102694;28;19931;-89
2022/03/29 11:24:01;;;;;;;;;;;14.70;99.90;;;;;;5091023;28;19953;-85
2022/03/29 11:26:53;;;;;;;;;;;14.80;99.90;;;;;;5093938;28;19970;-88
2022/03/29 11:32:19;;;;;;;;;;;15.20;99.90;;;;;;5115075;22;19936;-89
2022/03/29 11:35:15;;;;;;;;;;;;;;;;;;;;;
2022/03/29 11:40:38;;;;;;;;;;;14.40;98.80;;;;;;5050563;28;19929;-89
2022/03/29 11:46:25;;;;;;;;;;;15.70;99.00;;;;;;5043617;28;19968;-91
2022/03/29 11:48:52;;;;;;;;;;;16.90;99.90;;;;;;5051023;28;19928;-89
2022/03/29 11:51:32;;;;;;;;;;;15.20;99.90;;;;;;5039237;28;19978;-91
2022/03/29 11:57:21;;;;;;;;;;;14.20;99.30;;;;;;5048859;28;20472;-89
2022/03/29 11:59:50;;;;;;;;;;;15.20;99.80;;;;;;5043559;28;19931;-90
2022/03/29 12:02:25;;;;;;;;;;;15.10;99.90;;;;;;5046531;28;20031;-91
2022/03/29 12:11:08;;;;;;;;;;;16.30;97.20;;;;;;5027249;28;20015;-90
2022/03/29 12:13:56;;;;;;;;;;;16.60;97.60;;;;;;5052508;28;19927;-90
2022/03/29 12:16:42;;;;;;;;;;;16.50;95.90;;;;;;5047663;28;20068;-87
2022/03/29 12:19:30;;;;;;;;;;;16.70;96.00;;;;;;5049765;28;20384;-89
2022/03/29 12:22:01;;;;;;;;;;;14.50;95.70;;;;;;5055451;28;19925;-89
2022/03/29 12:24:35;;;;;;;;;;;16.60;96.10;;;;;;5048969;28;20244;-90
2022/03/29 12:27:04;;;;;;;;;;;16.60;96.10;;;;;;5055942;28;20011;-90
2022/03/29 12:29:32;;;;;;;;;;;16.30;97.60;;;;;;5046521;28;20043;-89
2022/03/29 12:32:02;;;;;;;;;;;16.60;96.40;;;;;;5053013;28;20243;-90
2022/03/29 12:37:29;;;;;;;;;;;19.10;97.20;;;;;;5013367;28;19929;-88
2022/03/29 12:40:03;;;;;;;;;;;16.20;97.70;;;;;;5036046;28;19929;-89
2022/03/29 12:42:31;;;;;;;;;;;14.20;96.80;;;;;;5052353;28;19925;-88
2022/03/29 12:45:09;;;;;;;;;;;16.30;97.00;;;;;;5054444;28;19955;-92
2022/03/29 12:50:33;;;;;;;;;;;16.40;98.10;;;;;;5050417;28;19925;-90
2022/03/29 12:53:05;;;;;;;;;;;16.10;96.50;;;;;;5052164;28;20028;-87
2022/03/29 12:55:33;;;;;;;;;;;16.90;95.70;;;;;;5053213;28;19931;-88
2022/03/29 12:58:01;;;;;;;;;;;16.50;97.00;;;;;;5046488;28;20375;-89
2022/03/29 13:00:37;;;;;;;;;;;16.90;96.40;;;;;;5048534;28;20387;-90
2022/03/29 13:03:10;;;;;;;;;;;16.70;96.20;;;;;;5193462;23;19949;-90
2022/03/29 13:05:38;;;;;;;;;;;16.60;95.20;;;;;;5015568;28;19925;-86
2022/03/29 13:08:14;;;;;;;;;;;16.80;95.50;;;;;;5041729;22;20410;-88
2022/03/29 13:11:05;;;;;;;;;;;18.20;97.00;;;;;;5036449;28;19952;-87
2022/03/29 13:14:05;;;;;;;;;;;16.50;95.60;;;;;;5032481;28;19933;-87
2022/03/29 13:16:32;;;;;;;;;;;15.90;95.00;;;;;;5039384;28;20374;-87
2022/03/29 13:19:03;;;;;;;;;;;16.60;97.20;;;;;;5038768;28;20005;-88
2022/03/29 13:27:20;;;;;;;;;;;16.00;96.20;;;;;;5024412;28;19933;-86
2022/03/29 13:29:59;;;;;;;;;;;15.70;98.00;;;;;;5023083;28;19926;-89
2022/03/29 13:32:26;;;;;;;;;;;16.20;97.70;;;;;;5036780;28;20061;-89
2022/03/29 13:34:56;;;;;;;;;;;15.10;99.50;;;;;;5015575;28;20279;-86
2022/03/29 13:37:25;;;;;;;;;;;15.20;99.90;;;;;;5017445;28;19925;-89
2022/03/29 13:39:54;;;;;;;;;;;15.10;99.40;;;;;;5032149;28;20021;-87
2022/03/29 13:42:20;;;;;;;;;;;14.90;99.90;;;;;;5028715;28;19960;-89
2022/03/29 13:44:49;;;;;;;;;;;15.50;99.90;;;;;;5026515;28;21427;-87
2022/03/29 13:47:16;;;;;;;;;;;14.80;99.90;;;;;;5029368;28;19948;-88
2022/03/29 13:49:45;;;;;;;;;;;14.90;99.90;;;;;;5035364;28;19926;-90
2022/03/29 13:52:13;;;;;;;;;;;14.30;99.90;;;;;;5031267;28;19929;-89
2022/03/29 13:54:41;;;;;;;;;;;14.60;99.90;;;;;;5038772;28;19971;-87
2022/03/29 13:57:08;;;;;;;;;;;14.40;99.90;;;;;;5032050;28;20020;-90
2022/03/29 13:59:35;;;;;;;;;;;14.00;99.90;;;;;;5035711;28;20404;-87
2022/03/29 14:02:04;;;;;;;;;;;14.30;99.90;;;;;;5024113;28;19926;-90
2022/03/29 14:07:54;;;;;;;;;;;14.70;99.90;;;;;;5014874;28;19980;-89
2022/03/29 14:10:32;;;;;;;;;;;13.70;99.90;;;;;;5021243;28;19929;-88
2022/03/29 14:12:59;;;;;;;;;;;16.10;99.90;;;;;;5018332;28;19935;-90
2022/03/29 14:15:29;;;;;;;;;;;14.10;99.90;;;;;;5023944;28;19940;-88
2022/03/29 14:17:57;;;;;;;;;;;14.50;99.90;;;;;;5024423;28;19925;-88
2022/03/29 14:20:24;;;;;;;;;;;14.00;99.90;;;;;;5013379;28;19985;-84
2022/03/29 14:23:01;;;;;;;;;;;14.00;99.90;;;;;;5022033;28;19971;-91
2022/03/29 14:25:33;;;;;;;;;;;14.00;99.90;;;;;;5000705;28;19987;-90
2022/03/29 14:28:11;;;;;;;;;;;14.10;99.90;;;;;;5012895;28;20295;-91
2022/03/29 14:30:44;;;;;;;;;;;15.60;99.90;;;;;;5013912;28;19972;-90
2022/03/29 14:33:12;;;;;;;;;;;14.00;99.90;;;;;;5014337;28;20388;-90
2022/03/29 14:41:16;;;;;;;;;;;13.80;99.90;;;;;;5039218;23;19942;-91
2022/03/29 14:44:04;;;;;;;;;;;14.50;99.90;;;;;;4950509;28;19954;-92
2022/03/29 14:46:33;;;;;;;;;;;13.10;99.90;;;;;;4919412;29;19963;-92
2022/03/29 14:49:35;;;;;;;;;;;14.40;99.90;;;;;;4920180;29;19927;-92
2022/03/29 14:52:19;;;;;;;;;;;14.60;99.90;;;;;;4848285;29;20031;-91
2022/03/29 14:55:21;;;;;;;;;;;13.80;99.90;;;;;;4932090;29;19927;-90
2022/03/29 14:57:48;;;;;;;;;;;16.50;99.90;;;;;;4914001;29;19941;-92
2022/03/29 15:00:36;;;;;;;;;;;13.90;99.90;;;;;;4923928;28;20009;-92
2022/03/29 15:06:14;;;;;;;;;;;14.00;99.90;;;;;;4940801;29;19927;-90
2022/03/29 15:08:55;;;;;;;;;;;14.20;99.90;;;;;;4946233;29;19941;-89
2022/03/29 15:14:34;;;;;;;;;;;14.80;99.90;;;;;;4937191;29;19935;-91
2022/03/29 15:17:01;;;;;;;;;;;14.40;99.90;;;;;;4945169;29;19933;-86
2022/03/29 15:20:09;;;;;;;;;;;14.30;99.90;;;;;;4941928;29;19934;-88
2022/03/29 15:26:10;;;;;;;;;;;14.50;99.90;;;;;;4945722;29;19939;-91
2022/03/29 15:28:47;;;;;;;;;;;;;;;;;;;;;
2022/03/29 15:31:28;;;;;;;;;;;16.80;99.90;;;;;;5166171;23;19933;-92
2022/03/29 15:37:17;;;;;;;;;;;14.70;99.90;;;;;;4991610;23;19941;-94
2022/03/29 15:40:02;;;;;;;;;;;15.70;99.90;;;;;;4977571;28;19926;-93
2022/03/29 15:42:42;;;;;;;;;;;14.30;99.90;;;;;;4970781;28;19930;-91
2022/03/29 15:45:10;;;;;;;;;;;15.30;99.90;;;;;;4971815;28;19930;-94
2022/03/29 15:47:57;;;;;;;;;;;;;;;;;;;;;
2022/03/29 15:50:44;;;;;;;;;;;16.40;99.90;;;;;;4967956;28;19941;-91
2022/03/29 15:56:55;;;;;;;;;;;14.70;99.90;;;;;;5333639;23;19933;-91
2022/03/29 15:59:25;;;;;;;;;;;14.00;99.90;;;;;;4964019;28;20109;-88
2022/03/29 16:01:53;;;;;;;;;;;12.90;99.90;;;;;;4962276;28;19990;-90
2022/03/29 16:04:41;;;;;;;;;;;13.10;99.90;;;;;;4971745;28;19926;-90
2022/03/29 16:07:20;;;;;;;;;;;14.40;99.90;;;;;;4904233;28;19986;-90
2022/03/29 16:09:50;;;;;;;;;;;14.20;99.90;;;;;;4968943;28;19938;-90